createdAt,value
2022-09-17T00:04:33.038Z,28.76
2022-09-17T00:05:40.148Z,28.78
2022-09-17T00:06:49.345Z,28.92
2022-09-17T00:07:55.856Z,29.00
2022-09-17T00:09:02.806Z,29.34
2022-09-17T00:10:09.568Z,29.33
2022-09-17T00:13:34.190Z,30.18
2022-09-17T00:19:11.660Z,30.83
2022-09-17T00:20:24.377Z,30.75
2022-09-17T00:27:55.218Z,31.19
2022-09-17T00:29:44.700Z,31.41
2022-09-17T00:31:01.594Z,31.79
2022-09-17T00:34:21.882Z,32.24
2022-09-17T00:35:50.064Z,32.39
2022-09-17T00:37:21.877Z,32.49
2022-09-17T00:39:33.614Z,32.33
2022-09-17T00:42:56.308Z,32.95
2022-09-17T00:45:01.115Z,32.95
2022-09-17T00:46:25.019Z,33.50
2022-09-17T00:47:40.168Z,33.69
2022-09-17T00:48:47.049Z,33.73
2022-09-17T00:50:19.102Z,33.85
2022-09-17T00:52:01.076Z,33.95
2022-09-17T00:53:21.433Z,34.06
2022-09-17T00:54:29.889Z,33.90
2022-09-17T00:55:44.982Z,34.28
2022-09-17T00:56:52.778Z,34.28
2022-09-17T00:58:00.470Z,34.48
2022-09-17T00:59:08.044Z,34.51
2022-09-17T01:00:16.427Z,34.49
2022-09-17T01:01:41.787Z,34.51
2022-09-17T01:03:06.204Z,34.57
2022-09-17T01:04:22.002Z,34.73
2022-09-17T01:05:37.222Z,35.17
2022-09-17T01:07:23.044Z,35.30
2022-09-17T01:08:49.894Z,35.66
2022-09-17T01:10:18.863Z,36.08
2022-09-17T01:11:59.842Z,36.88
2022-09-17T01:13:39.226Z,37.73
2022-09-17T01:14:54.591Z,38.40
2022-09-17T01:16:50.090Z,39.11
2022-09-17T01:18:36.588Z,39.95
2022-09-17T01:20:19.847Z,40.79
2022-09-17T01:21:42.334Z,41.36
2022-09-17T01:23:23.079Z,41.99
2022-09-17T01:24:48.951Z,42.79
2022-09-17T01:26:04.753Z,43.21
2022-09-17T01:27:49.911Z,43.69
2022-09-17T01:29:07.113Z,43.89
2022-09-17T01:30:30.260Z,44.40
2022-09-17T01:32:21.225Z,44.84
2022-09-17T01:33:37.977Z,45.49
2022-09-17T01:35:02.682Z,45.74
2022-09-17T01:36:12.172Z,46.23
2022-09-17T01:37:38.942Z,46.47
2022-09-17T01:38:50.486Z,46.88
2022-09-17T01:40:18.256Z,47.08
2022-09-17T01:41:49.496Z,47.64
2022-09-17T01:43:25.476Z,47.93
2022-09-17T01:44:56.767Z,48.45
2022-09-17T01:46:19.532Z,48.91
2022-09-17T01:47:31.062Z,49.29
2022-09-17T01:48:44.916Z,49.69
2022-09-17T01:49:55.479Z,49.92
2022-09-17T01:51:38.464Z,50.19
2022-09-17T01:52:47.195Z,50.34
2022-09-17T01:53:59.152Z,50.63
2022-09-17T01:55:14.110Z,50.78
2022-09-17T01:56:26.258Z,50.91
2022-09-17T01:57:51.075Z,50.98
2022-09-17T01:59:05.305Z,51.13
2022-09-17T02:02:10.050Z,52.24
2022-09-17T02:03:42.075Z,51.96
2022-09-17T02:05:01.118Z,52.58
2022-09-17T02:06:09.998Z,52.84
2022-09-17T02:07:23.531Z,53.06
2022-09-17T02:08:39.298Z,53.31
2022-09-17T02:10:29.138Z,53.68
2022-09-17T02:13:59.562Z,54.51
2022-09-17T02:15:15.781Z,54.55
2022-09-17T02:16:29.939Z,54.95
2022-09-17T02:17:55.986Z,55.09
2022-09-17T02:19:13.387Z,55.30
2022-09-17T02:20:23.373Z,55.52
2022-09-17T02:23:46.566Z,56.26
2022-09-17T02:25:30.007Z,56.87
2022-09-17T02:27:44.390Z,57.07
2022-09-17T02:29:02.193Z,57.60
2022-09-17T02:30:14.147Z,57.69
2022-09-17T02:31:35.173Z,57.91
2022-09-17T02:33:01.799Z,58.23
2022-09-17T02:34:11.830Z,58.44
2022-09-17T02:35:21.811Z,58.64
2022-09-17T02:36:28.359Z,59.02
2022-09-17T02:37:34.380Z,59.16
2022-09-17T02:38:40.350Z,59.41
2022-09-17T02:39:46.411Z,59.52
2022-09-17T02:40:55.338Z,59.50
2022-09-17T02:42:28.751Z,59.67
2022-09-17T02:43:43.674Z,59.65
2022-09-17T02:45:11.027Z,59.71
2022-09-17T02:46:35.443Z,59.59
2022-09-17T02:48:18.223Z,59.86
2022-09-17T02:49:35.125Z,59.96
2022-09-17T02:50:47.923Z,60.46
2022-09-17T02:52:21.322Z,60.74
2022-09-17T02:54:03.845Z,61.38
2022-09-17T02:55:37.484Z,61.83
2022-09-17T02:56:49.619Z,62.32
2022-09-17T02:58:00.482Z,62.67
2022-09-17T02:59:44.582Z,62.27
2022-09-17T03:00:50.739Z,61.96
2022-09-17T03:02:18.616Z,62.42
2022-09-17T03:03:40.677Z,62.48
2022-09-17T03:04:47.518Z,62.32
2022-09-17T03:05:53.952Z,62.39
2022-09-17T03:07:01.375Z,62.22
2022-09-17T03:08:09.503Z,62.28
2022-09-17T03:09:17.886Z,63.23
2022-09-17T03:10:25.503Z,63.82
2022-09-17T03:11:31.848Z,64.16
2022-09-17T03:12:42.603Z,64.26
2022-09-17T03:13:52.762Z,63.98
2022-09-17T03:14:58.708Z,64.17
2022-09-17T03:16:07.758Z,64.41
2022-09-17T03:17:15.458Z,64.52
2022-09-17T03:18:23.799Z,64.31
2022-09-17T03:19:30.713Z,64.54
2022-09-17T03:20:39.811Z,64.54
2022-09-17T03:24:02.969Z,65.08
2022-09-17T03:25:15.859Z,64.87
2022-09-17T03:26:26.674Z,64.86
2022-09-17T03:27:46.775Z,65.02
2022-09-17T03:28:54.535Z,65.16
2022-09-17T03:30:03.598Z,64.85
2022-09-17T03:31:20.583Z,64.53
2022-09-17T03:32:46.365Z,64.90
2022-09-17T03:33:54.461Z,65.07
2022-09-17T03:35:07.182Z,65.25
2022-09-17T03:36:32.990Z,65.68
2022-09-17T03:37:52.901Z,65.87
2022-09-17T03:39:14.088Z,66.11
2022-09-17T03:42:31.287Z,65.99
2022-09-17T03:43:38.023Z,65.85
2022-09-17T03:45:29.150Z,65.80
2022-09-17T03:46:51.543Z,66.20
2022-09-17T03:48:10.007Z,66.44
2022-09-17T03:49:20.835Z,66.36
2022-09-17T03:50:32.363Z,66.70
2022-09-17T03:51:52.550Z,66.66
2022-09-17T03:53:05.458Z,66.55
2022-09-17T03:54:28.524Z,66.47
2022-09-17T03:56:10.471Z,66.32
2022-09-17T03:57:19.049Z,66.35
2022-09-17T04:01:10.432Z,67.03
2022-09-17T04:04:29.779Z,67.41
2022-09-17T04:05:45.413Z,67.32
2022-09-17T04:08:52.016Z,67.52
2022-09-17T04:10:21.376Z,67.82
2022-09-17T04:11:29.765Z,67.76
2022-09-17T04:14:14.747Z,68.09
2022-09-17T04:16:14.856Z,68.23
2022-09-17T04:17:32.700Z,68.52
2022-09-17T04:18:41.460Z,68.52
2022-09-17T04:19:48.970Z,68.41
2022-09-17T04:21:25.489Z,68.33
2022-09-17T04:23:04.374Z,68.72
2022-09-17T04:24:15.274Z,68.92
2022-09-17T04:27:10.888Z,68.90
2022-09-17T04:28:22.511Z,69.00
2022-09-17T04:29:36.906Z,69.16
2022-09-17T04:30:55.881Z,69.08
2022-09-17T04:32:03.685Z,69.01
2022-09-17T04:33:17.905Z,68.95
2022-09-17T04:34:48.440Z,69.55
2022-09-17T04:35:55.424Z,70.04
2022-09-17T04:37:04.465Z,69.94
2022-09-17T04:38:34.167Z,70.03
2022-09-17T04:39:43.334Z,69.92
2022-09-17T04:41:01.846Z,70.12
2022-09-17T04:42:20.492Z,69.92
2022-09-17T04:43:51.184Z,69.69
2022-09-17T04:45:14.559Z,69.51
2022-09-17T04:46:25.177Z,69.38
2022-09-17T04:47:34.721Z,69.74
2022-09-17T04:48:44.724Z,70.37
2022-09-17T04:49:57.806Z,70.61
2022-09-17T04:51:11.663Z,70.90
2022-09-17T04:54:14.339Z,71.71
2022-09-17T04:55:21.703Z,71.61
2022-09-17T04:56:29.106Z,71.34
2022-09-17T04:58:01.099Z,71.17
2022-09-17T04:59:13.017Z,71.29
2022-09-17T05:00:22.960Z,71.46
2022-09-17T05:01:32.499Z,71.63
2022-09-17T05:02:40.399Z,71.85
2022-09-17T05:03:47.352Z,71.97
2022-09-17T05:04:53.581Z,72.09
2022-09-17T05:06:01.158Z,71.84
2022-09-17T05:07:10.914Z,71.61
2022-09-17T05:08:20.244Z,71.34
2022-09-17T05:09:28.551Z,71.83
2022-09-17T05:10:35.876Z,71.95
2022-09-17T05:11:42.279Z,72.19
2022-09-17T05:12:55.325Z,72.37
2022-09-17T05:14:04.856Z,72.49
2022-09-17T05:15:14.918Z,72.41
2022-09-17T05:16:26.705Z,72.28
2022-09-17T05:17:35.188Z,72.34
2022-09-17T05:18:45.849Z,72.92
2022-09-17T05:20:06.677Z,72.92
2022-09-17T05:21:17.520Z,72.98
2022-09-17T05:22:48.972Z,72.88
2022-09-17T05:24:28.624Z,72.47
2022-09-17T05:26:15.633Z,72.48
2022-09-17T05:27:32.361Z,72.25
2022-09-17T05:28:47.210Z,73.06
2022-09-17T05:29:57.967Z,73.27
2022-09-17T05:31:07.346Z,73.33
2022-09-17T05:32:14.963Z,73.17
2022-09-17T05:33:22.287Z,74.02
2022-09-17T05:34:29.320Z,73.95
2022-09-17T05:35:38.360Z,73.72
2022-09-17T05:36:48.231Z,74.13
2022-09-17T05:38:17.438Z,73.99
2022-09-17T05:39:26.450Z,73.97
2022-09-17T05:40:36.757Z,73.71
2022-09-17T05:41:42.871Z,73.63
2022-09-17T05:42:49.471Z,73.64
2022-09-17T05:43:55.371Z,73.91
2022-09-17T05:45:01.728Z,74.23
2022-09-17T05:46:08.103Z,74.01
2022-09-17T05:47:14.579Z,73.90
2022-09-17T05:48:23.292Z,73.96
2022-09-17T05:49:29.264Z,74.28
2022-09-17T05:50:35.914Z,74.56
2022-09-17T05:51:42.161Z,74.62
2022-09-17T05:52:49.133Z,74.79
2022-09-17T05:53:56.943Z,74.68
2022-09-17T05:55:04.305Z,74.54
2022-09-17T05:56:10.327Z,74.44
2022-09-17T05:57:16.799Z,74.78
2022-09-17T05:58:23.885Z,75.00
2022-09-17T05:59:29.567Z,74.88
2022-09-17T06:00:35.350Z,75.09
2022-09-17T06:01:41.649Z,75.05
2022-09-17T06:02:47.489Z,75.01
2022-09-17T06:03:53.601Z,74.94
2022-09-17T06:05:02.892Z,74.62
2022-09-17T06:06:11.199Z,74.83
2022-09-17T06:07:17.187Z,74.82
2022-09-17T06:08:23.979Z,75.19
2022-09-17T06:09:29.806Z,75.47
2022-09-17T06:10:38.062Z,75.60
2022-09-17T06:11:43.912Z,75.63
2022-09-17T06:12:50.891Z,75.24
2022-09-17T06:13:57.463Z,75.07
2022-09-17T06:15:05.109Z,74.96
2022-09-17T06:16:13.798Z,75.20
2022-09-17T06:17:22.177Z,75.51
2022-09-17T06:18:29.548Z,75.72
2022-09-17T06:19:35.480Z,76.13
2022-09-17T06:20:42.415Z,76.32
2022-09-17T06:21:51.007Z,76.46
2022-09-17T06:23:03.027Z,76.38
2022-09-17T06:24:08.731Z,76.09
2022-09-17T06:25:15.766Z,75.98
2022-09-17T06:26:22.083Z,76.02
2022-09-17T06:27:37.297Z,75.85
2022-09-17T06:28:43.237Z,75.67
2022-09-17T06:29:49.437Z,76.13
2022-09-17T06:30:58.318Z,76.22
2022-09-17T06:32:04.541Z,76.24
2022-09-17T06:33:10.752Z,76.46
2022-09-17T06:34:16.849Z,76.50
2022-09-17T06:35:24.090Z,76.37
2022-09-17T06:36:30.860Z,76.27
2022-09-17T06:37:41.210Z,76.19
2022-09-17T06:38:48.841Z,76.10
2022-09-17T06:39:55.693Z,76.10
2022-09-17T06:41:02.838Z,76.26
2022-09-17T06:42:11.056Z,76.40
2022-09-17T06:43:18.569Z,76.32
2022-09-17T06:44:24.985Z,76.33
2022-09-17T06:45:32.531Z,76.35
2022-09-17T06:46:38.525Z,76.52
2022-09-17T06:47:47.450Z,76.72
2022-09-17T06:48:55.283Z,76.56
2022-09-17T06:50:02.308Z,76.68
2022-09-17T06:51:09.784Z,76.73
2022-09-17T06:52:16.927Z,76.58
2022-09-17T06:53:24.633Z,76.42
2022-09-17T06:54:31.944Z,76.56
2022-09-17T06:55:37.879Z,76.99
2022-09-17T06:56:46.391Z,76.93
2022-09-17T06:57:55.169Z,77.00
2022-09-17T06:59:00.860Z,77.32
2022-09-17T07:00:08.100Z,77.30
2022-09-17T07:01:14.288Z,77.60
2022-09-17T07:02:20.361Z,77.77
2022-09-17T07:03:26.418Z,77.67
2022-09-17T07:04:32.423Z,77.60
2022-09-17T07:05:38.430Z,77.59
2022-09-17T07:06:45.396Z,77.77
2022-09-17T07:07:51.979Z,77.91
2022-09-17T07:08:57.706Z,77.99
2022-09-17T07:10:06.447Z,78.34
2022-09-17T07:11:12.131Z,78.19
2022-09-17T07:12:19.348Z,78.16
2022-09-17T07:13:25.981Z,78.09
2022-09-17T07:14:35.126Z,78.11
2022-09-17T07:15:42.498Z,78.19
2022-09-17T07:16:49.300Z,78.14
2022-09-17T07:17:55.234Z,78.22
2022-09-17T07:19:01.229Z,78.10
2022-09-17T07:20:08.837Z,78.05
2022-09-17T07:21:15.756Z,78.04
2022-09-17T07:22:23.029Z,78.40
2022-09-17T07:23:34.670Z,78.55
2022-09-17T07:24:41.592Z,78.94
2022-09-17T07:25:53.999Z,79.13
2022-09-17T07:27:01.629Z,79.03
2022-09-17T07:28:10.179Z,79.17
2022-09-17T07:29:17.264Z,79.23
2022-09-17T07:30:27.275Z,79.39
2022-09-17T07:31:34.266Z,79.54
2022-09-17T07:32:40.717Z,79.71
2022-09-17T07:33:49.637Z,79.69
2022-09-17T07:34:57.477Z,79.44
2022-09-17T07:36:07.389Z,79.28
2022-09-17T07:37:13.784Z,79.86
2022-09-17T07:38:21.179Z,79.75
2022-09-17T07:39:27.103Z,79.72
2022-09-17T07:40:35.885Z,79.93
2022-09-17T07:41:43.000Z,79.75
2022-09-17T07:42:48.953Z,79.78
2022-09-17T07:43:57.662Z,79.88
2022-09-17T07:45:03.992Z,79.89
2022-09-17T07:46:21.728Z,79.72
2022-09-17T07:47:27.897Z,79.77
2022-09-17T07:48:33.925Z,80.00
2022-09-17T07:49:39.699Z,80.38
2022-09-17T07:50:45.613Z,80.59
2022-09-17T07:51:52.935Z,80.25
2022-09-17T07:52:59.885Z,80.22
2022-09-17T07:54:06.987Z,80.37
2022-09-17T07:55:13.226Z,80.18
2022-09-17T07:56:19.279Z,80.30
2022-09-17T07:57:25.500Z,80.42
2022-09-17T07:58:37.870Z,80.28
2022-09-17T07:59:45.119Z,80.20
2022-09-17T08:00:51.780Z,80.34
2022-09-17T08:01:59.859Z,80.70
2022-09-17T08:03:07.402Z,81.11
2022-09-17T08:04:13.597Z,80.94
2022-09-17T08:05:19.518Z,80.86
2022-09-17T08:06:29.084Z,80.95
2022-09-17T08:07:34.841Z,80.97
2022-09-17T08:08:44.439Z,80.84
2022-09-17T08:09:51.522Z,80.68
2022-09-17T08:11:02.349Z,80.59
2022-09-17T08:12:09.444Z,80.54
2022-09-17T08:13:16.408Z,80.81
2022-09-17T08:14:28.415Z,81.67
2022-09-17T08:15:37.238Z,81.67
2022-09-17T08:16:47.047Z,81.57
2022-09-17T08:17:55.197Z,81.61
2022-09-17T08:19:04.351Z,81.72
2022-09-17T08:20:13.462Z,81.83
2022-09-17T08:21:20.260Z,81.93
2022-09-17T08:22:29.822Z,82.41
2022-09-17T08:23:38.893Z,82.67
2022-09-17T08:24:46.100Z,82.49
2022-09-17T08:25:55.864Z,82.38
2022-09-17T08:27:01.722Z,82.32
2022-09-17T08:28:09.269Z,82.37
2022-09-17T08:29:16.736Z,82.52
2022-09-17T08:30:24.563Z,82.43
2022-09-17T08:31:33.981Z,82.41
2022-09-17T08:32:41.627Z,82.61
2022-09-17T08:33:47.271Z,82.70
2022-09-17T08:34:58.301Z,82.66
2022-09-17T08:36:04.762Z,82.51
2022-09-17T08:37:11.885Z,82.59
2022-09-17T08:38:19.351Z,83.16
2022-09-17T08:39:25.416Z,83.68
2022-09-17T08:40:32.960Z,83.88
2022-09-17T08:41:44.036Z,83.84
2022-09-17T08:43:03.043Z,83.96
2022-09-17T08:44:16.125Z,84.15
2022-09-17T08:45:21.771Z,83.80
2022-09-17T08:46:33.666Z,83.44
2022-09-17T08:47:40.328Z,83.22
2022-09-17T08:49:03.714Z,83.05
2022-09-17T08:50:15.407Z,83.18
2022-09-17T08:51:42.754Z,83.12
2022-09-17T08:53:19.115Z,83.02
2022-09-17T08:54:28.914Z,83.27
2022-09-17T08:55:58.186Z,83.30
2022-09-17T08:57:32.856Z,83.53
2022-09-17T08:58:53.882Z,84.23
2022-09-17T09:00:14.401Z,84.53
2022-09-17T09:01:23.333Z,84.56
2022-09-17T09:02:52.850Z,84.41
2022-09-17T09:04:17.168Z,84.41
2022-09-17T09:05:39.870Z,84.54
2022-09-17T09:06:53.021Z,85.03
2022-09-17T09:08:14.807Z,85.15
2022-09-17T09:09:22.905Z,85.07
2022-09-17T09:10:31.710Z,85.15
2022-09-17T09:11:37.914Z,85.13
2022-09-17T09:12:45.196Z,85.16
2022-09-17T09:14:17.980Z,85.28
2022-09-17T09:15:45.533Z,85.34
2022-09-17T09:16:54.950Z,85.36
2022-09-17T09:18:19.283Z,85.30
2022-09-17T09:19:25.964Z,85.22
2022-09-17T09:20:56.307Z,85.33
2022-09-17T09:22:48.997Z,85.70
2022-09-17T09:24:29.999Z,86.23
2022-09-17T09:25:43.452Z,86.33
2022-09-17T09:27:03.368Z,86.28
2022-09-17T09:28:13.147Z,86.03
2022-09-17T09:29:40.085Z,86.12
2022-09-17T09:31:24.628Z,86.47
2022-09-17T09:33:08.025Z,86.35
2022-09-17T09:34:16.689Z,86.26
2022-09-17T09:35:34.781Z,86.46
2022-09-17T09:36:41.796Z,86.74
2022-09-17T09:38:24.855Z,87.03
2022-09-17T09:39:41.421Z,87.15
2022-09-17T09:41:10.801Z,87.19
2022-09-17T09:42:31.615Z,87.34
2022-09-17T09:44:03.635Z,87.54
2022-09-17T09:45:42.558Z,87.64
2022-09-17T09:47:14.096Z,87.96
2022-09-17T09:48:24.667Z,87.84
2022-09-17T09:49:46.366Z,87.74
2022-09-17T09:51:25.757Z,87.58
2022-09-17T09:53:06.204Z,87.32
2022-09-17T09:54:33.761Z,87.34
2022-09-17T09:56:20.294Z,87.36
2022-09-17T09:57:44.973Z,87.19
2022-09-17T09:58:52.651Z,87.25
2022-09-17T10:00:31.876Z,87.17
2022-09-17T10:01:40.321Z,86.97
2022-09-17T10:02:46.529Z,87.17
2022-09-17T10:03:56.920Z,87.22
2022-09-17T10:05:10.638Z,87.53
2022-09-17T10:06:16.789Z,87.80
2022-09-17T10:07:25.497Z,87.65
2022-09-17T10:08:36.544Z,87.66
2022-09-17T10:09:47.421Z,87.38
2022-09-17T10:11:22.818Z,87.05
2022-09-17T10:12:32.612Z,87.03
2022-09-17T10:13:38.817Z,87.57
2022-09-17T10:14:46.529Z,87.95
2022-09-17T10:15:52.702Z,88.22
2022-09-17T10:17:27.094Z,88.31
2022-09-17T10:18:35.868Z,88.42
2022-09-17T10:19:42.201Z,88.54
2022-09-17T10:20:54.878Z,88.48
2022-09-17T10:22:00.879Z,88.51
2022-09-17T10:23:07.807Z,88.78
2022-09-17T10:24:32.772Z,88.90
2022-09-17T10:25:45.849Z,88.75
2022-09-17T10:26:51.729Z,88.57
2022-09-17T10:27:58.652Z,88.55
2022-09-17T10:29:15.567Z,88.41
2022-09-17T10:30:24.898Z,88.44
2022-09-17T10:31:49.602Z,88.61
2022-09-17T10:33:17.683Z,88.60
2022-09-17T10:34:30.054Z,88.45
2022-09-17T10:35:37.885Z,88.28
2022-09-17T10:36:45.001Z,88.34
2022-09-17T10:37:51.403Z,88.95
2022-09-17T10:38:57.418Z,89.87
2022-09-17T10:40:17.634Z,90.59
2022-09-17T10:41:25.469Z,90.98
2022-09-17T10:42:32.982Z,91.20
2022-09-17T10:43:39.428Z,91.31
2022-09-17T10:45:02.667Z,91.13
2022-09-17T10:46:11.442Z,91.03
2022-09-17T10:47:30.297Z,91.06
2022-09-17T10:48:45.796Z,91.25
2022-09-17T10:50:03.963Z,91.23
2022-09-17T10:51:10.736Z,91.27
2022-09-17T10:52:31.098Z,91.17
2022-09-17T10:53:54.238Z,91.01
2022-09-17T10:55:30.425Z,90.84
2022-09-17T10:56:37.608Z,90.69
2022-09-17T10:57:51.878Z,90.48
2022-09-17T10:59:22.544Z,90.32
2022-09-17T11:00:29.370Z,90.20
2022-09-17T11:01:59.579Z,90.22
2022-09-17T11:03:27.882Z,90.58
2022-09-17T11:04:57.022Z,91.00
2022-09-17T11:06:39.981Z,91.03
2022-09-17T11:07:49.730Z,90.68
2022-09-17T11:09:15.329Z,90.72
2022-09-17T11:10:43.456Z,90.41
2022-09-17T11:12:03.811Z,90.13
2022-09-17T11:13:37.723Z,89.93
2022-09-17T11:15:01.448Z,89.80
2022-09-17T11:16:55.053Z,89.63
2022-09-17T11:18:28.441Z,89.80
2022-09-17T11:19:39.811Z,89.97
2022-09-17T11:21:17.154Z,90.17
2022-09-17T11:22:46.752Z,90.30
2022-09-17T11:23:58.908Z,90.62
2022-09-17T11:25:23.283Z,90.43
2022-09-17T11:27:02.967Z,90.41
2022-09-17T11:28:37.070Z,90.32
2022-09-17T11:30:11.441Z,90.11
2022-09-17T11:31:41.494Z,89.99
2022-09-17T11:33:08.012Z,90.05
2022-09-17T11:34:48.447Z,90.00
2022-09-17T11:36:01.012Z,90.13
2022-09-17T11:37:14.217Z,90.27
2022-09-17T11:38:26.573Z,90.27
2022-09-17T11:39:46.725Z,90.24
2022-09-17T11:40:54.995Z,90.24
2022-09-17T11:42:03.993Z,90.35
2022-09-17T11:43:39.324Z,90.43
2022-09-17T11:45:13.123Z,90.51
2022-09-17T11:46:28.097Z,90.62
2022-09-17T11:47:39.283Z,90.79
2022-09-17T11:49:07.055Z,90.80
2022-09-17T11:50:26.170Z,91.45
2022-09-17T11:51:38.659Z,91.84
2022-09-17T11:53:09.184Z,92.08
2022-09-17T11:54:27.263Z,92.88
2022-09-17T11:56:19.500Z,93.28
2022-09-17T11:57:33.409Z,93.56
2022-09-17T11:58:45.879Z,93.77
2022-09-17T12:00:19.035Z,94.06
2022-09-17T12:02:07.654Z,94.36
2022-09-17T12:03:17.908Z,94.50
2022-09-17T12:04:44.334Z,94.67
2022-09-17T12:05:58.367Z,95.00
2022-09-17T12:07:25.046Z,95.58
2022-09-17T12:09:02.773Z,95.57
2022-09-17T12:10:30.488Z,95.70
2022-09-17T12:11:58.358Z,95.72
2022-09-17T12:13:19.096Z,95.62
2022-09-17T12:14:27.903Z,95.59
2022-09-17T12:15:35.347Z,95.68
2022-09-17T12:16:45.850Z,95.59
2022-09-17T12:18:34.105Z,95.56
2022-09-17T12:19:49.353Z,95.59
2022-09-17T12:20:55.927Z,95.54
2022-09-17T12:22:09.850Z,95.54
2022-09-17T12:23:23.112Z,95.70
2022-09-17T12:24:32.514Z,95.65
2022-09-17T12:26:11.650Z,95.66
2022-09-17T12:27:51.914Z,95.42
2022-09-17T12:29:14.654Z,95.54
2022-09-17T12:30:23.625Z,95.56
2022-09-17T12:31:50.454Z,95.46
2022-09-17T12:32:59.592Z,95.31
2022-09-17T12:34:48.921Z,95.45
2022-09-17T12:36:04.932Z,95.32
2022-09-17T12:37:36.592Z,95.23
2022-09-17T12:39:07.354Z,94.73
2022-09-17T12:40:38.285Z,94.42
2022-09-17T12:42:21.574Z,94.40
2022-09-17T12:43:40.571Z,94.03
2022-09-17T12:44:52.147Z,93.87
2022-09-17T12:46:02.119Z,93.56
2022-09-17T12:47:37.317Z,93.46
2022-09-17T12:49:06.186Z,93.35
2022-09-17T12:50:50.538Z,93.35
2022-09-17T12:52:02.783Z,93.36
2022-09-17T12:53:44.341Z,93.39
2022-09-17T12:55:19.778Z,93.16
2022-09-17T12:56:54.567Z,92.85
2022-09-17T12:58:35.235Z,92.58
2022-09-17T12:59:47.962Z,92.26
2022-09-17T13:01:15.610Z,92.33
2022-09-17T13:02:28.623Z,92.65
2022-09-17T13:04:49.884Z,92.70
2022-09-17T13:06:26.444Z,93.08
2022-09-17T13:07:47.138Z,93.22
2022-09-17T13:08:58.453Z,93.32
2022-09-17T13:10:25.739Z,93.27
2022-09-17T13:11:42.082Z,93.29
2022-09-17T13:13:24.686Z,93.18
2022-09-17T13:14:38.240Z,93.15
2022-09-17T13:16:14.325Z,93.18
2022-09-17T13:18:22.960Z,93.27
2022-09-17T13:20:15.352Z,93.45
2022-09-17T13:21:33.617Z,93.46
2022-09-17T13:22:50.346Z,93.64
2022-09-17T13:23:57.244Z,93.70
2022-09-17T13:25:08.546Z,93.77
2022-09-17T13:26:20.285Z,93.85
2022-09-17T13:27:28.473Z,93.91
2022-09-17T13:28:51.524Z,94.30
2022-09-17T13:30:05.275Z,94.93
2022-09-17T13:31:13.193Z,95.15
2022-09-17T13:32:36.020Z,95.48
2022-09-17T13:34:03.643Z,95.63
2022-09-17T13:35:10.633Z,95.63
2022-09-17T13:36:55.976Z,95.50
2022-09-17T13:38:02.296Z,95.34
2022-09-17T13:39:33.170Z,95.35
2022-09-17T13:40:39.628Z,95.67
2022-09-17T13:41:47.196Z,96.21
2022-09-17T13:42:58.362Z,96.54
2022-09-17T13:44:08.015Z,96.71
2022-09-17T13:45:20.950Z,96.88
2022-09-17T13:46:30.050Z,97.24
2022-09-17T13:48:00.448Z,97.45
2022-09-17T13:49:13.141Z,97.42
2022-09-17T13:50:31.268Z,97.43
2022-09-17T13:51:40.349Z,97.41
2022-09-17T13:52:47.906Z,97.41
2022-09-17T13:53:55.277Z,97.31
2022-09-17T13:55:03.440Z,97.07
2022-09-17T13:56:33.294Z,96.83
2022-09-17T13:57:48.710Z,96.37
2022-09-17T13:58:55.305Z,96.03
2022-09-17T14:00:01.921Z,95.97
2022-09-17T14:01:18.992Z,95.94
2022-09-17T14:02:32.477Z,95.93
2022-09-17T14:03:49.327Z,95.78
2022-09-17T14:05:36.733Z,95.42
2022-09-17T14:06:46.890Z,95.09
2022-09-17T14:07:53.324Z,95.14
2022-09-17T14:09:01.341Z,95.05
2022-09-17T14:10:14.419Z,95.09
2022-09-17T14:11:30.410Z,95.13
2022-09-17T14:13:25.459Z,94.70
2022-09-17T14:14:42.535Z,94.39
2022-09-17T14:15:48.820Z,94.36
2022-09-17T14:16:55.274Z,94.18
2022-09-17T14:18:04.856Z,94.12
2022-09-17T14:19:39.325Z,94.17
2022-09-17T14:20:46.072Z,94.16
2022-09-17T14:22:13.406Z,94.08
2022-09-17T14:23:20.812Z,93.89
2022-09-17T14:24:38.110Z,93.70
2022-09-17T14:25:54.163Z,93.64
2022-09-17T14:27:28.311Z,93.61
2022-09-17T14:29:06.577Z,93.14
2022-09-17T14:30:32.424Z,92.94
2022-09-17T14:31:39.665Z,92.64
2022-09-17T14:33:03.115Z,92.42
2022-09-17T14:34:12.344Z,92.12
2022-09-17T14:35:42.241Z,91.91
2022-09-17T14:36:49.785Z,91.75
2022-09-17T14:38:01.811Z,91.66
2022-09-17T14:39:12.294Z,91.49
2022-09-17T14:40:20.770Z,91.50
2022-09-17T14:41:35.048Z,91.55
2022-09-17T14:42:43.133Z,91.17
2022-09-17T14:43:55.813Z,90.76
2022-09-17T14:45:23.828Z,90.31
2022-09-17T14:46:45.130Z,89.90
2022-09-17T14:48:39.477Z,89.70
2022-09-17T14:49:47.690Z,89.45
2022-09-17T14:50:54.176Z,89.39
2022-09-17T14:52:00.293Z,89.23
2022-09-17T14:53:09.903Z,89.03
2022-09-17T14:54:36.285Z,88.97
2022-09-17T14:55:45.707Z,88.18
2022-09-17T14:56:58.584Z,87.86
2022-09-17T14:58:06.443Z,87.47
2022-09-17T14:59:25.329Z,86.93
2022-09-17T15:00:36.921Z,86.87
2022-09-17T15:01:47.816Z,86.66
2022-09-17T15:03:00.428Z,86.59
2022-09-17T15:04:16.060Z,86.70
2022-09-17T15:05:27.567Z,86.36
2022-09-17T15:06:34.141Z,86.12
2022-09-17T15:07:44.826Z,85.48
2022-09-17T15:08:53.069Z,85.19
2022-09-17T15:10:14.860Z,85.11
2022-09-17T15:11:24.076Z,84.73
2022-09-17T15:12:31.079Z,84.25
2022-09-17T15:13:53.701Z,83.81
2022-09-17T15:15:00.190Z,83.25
2022-09-17T15:16:31.639Z,82.87
2022-09-17T15:17:38.567Z,82.25
2022-09-17T15:18:54.401Z,81.73
2022-09-17T15:20:00.677Z,81.74
2022-09-17T15:21:13.644Z,81.60
2022-09-17T15:22:31.367Z,81.10
2022-09-17T15:23:39.917Z,80.53
2022-09-17T15:24:52.063Z,80.67
2022-09-17T15:25:58.942Z,80.49
2022-09-17T15:27:30.638Z,80.40
2022-09-17T15:28:38.293Z,80.10
2022-09-17T15:29:46.586Z,79.64
2022-09-17T15:30:52.928Z,79.53
2022-09-17T15:32:00.288Z,78.93
2022-09-17T15:33:06.471Z,78.64
2022-09-17T15:34:14.301Z,78.15
2022-09-17T15:35:35.020Z,77.80
2022-09-17T15:36:42.128Z,78.23
2022-09-17T15:38:21.704Z,78.56
2022-09-17T15:39:42.939Z,78.91
2022-09-17T15:40:48.813Z,78.65
2022-09-17T15:42:01.460Z,78.48
2022-09-17T15:43:34.391Z,77.97
2022-09-17T15:44:42.726Z,77.64
2022-09-17T15:45:49.067Z,77.13
2022-09-17T15:47:37.787Z,76.93
2022-09-17T15:48:47.485Z,77.28
2022-09-17T15:50:29.486Z,77.59
2022-09-17T15:51:40.401Z,77.27
2022-09-17T15:52:48.877Z,77.06
2022-09-17T15:53:59.542Z,76.42
2022-09-17T15:55:07.335Z,75.83
2022-09-17T15:56:15.524Z,75.89
2022-09-17T15:57:22.723Z,75.71
2022-09-17T15:58:36.247Z,75.44
2022-09-17T15:59:43.523Z,75.03
2022-09-17T16:01:14.707Z,74.56
2022-09-17T16:02:31.844Z,74.91
2022-09-17T16:03:40.964Z,75.27
2022-09-17T16:04:53.220Z,75.25
2022-09-17T16:06:04.057Z,74.95
2022-09-17T16:07:41.366Z,74.42
2022-09-17T16:09:29.578Z,74.26
2022-09-17T16:10:35.962Z,74.02
2022-09-17T16:11:44.607Z,73.75
2022-09-17T16:12:52.167Z,73.68
2022-09-17T16:13:59.260Z,73.26
2022-09-17T16:15:07.808Z,72.90
2022-09-17T16:16:25.339Z,72.42
2022-09-17T16:17:39.101Z,71.56
2022-09-17T16:18:44.994Z,71.32
2022-09-17T16:19:52.453Z,70.99
2022-09-17T16:20:59.787Z,70.91
2022-09-17T16:22:10.284Z,70.96
2022-09-17T16:23:16.307Z,70.73
2022-09-17T16:24:23.895Z,70.63
2022-09-17T16:25:32.301Z,70.66
2022-09-17T16:26:39.768Z,70.39
2022-09-17T16:28:14.598Z,70.61
2022-09-17T16:29:24.606Z,70.62
2022-09-17T16:30:32.544Z,70.52
2022-09-17T16:31:49.000Z,69.48
2022-09-17T16:33:11.203Z,69.14
2022-09-17T16:34:19.546Z,68.82
2022-09-17T16:35:27.486Z,69.10
2022-09-17T16:36:34.037Z,69.12
2022-09-17T16:37:42.537Z,68.99
2022-09-17T16:38:48.616Z,68.28
2022-09-17T16:39:56.056Z,67.90
2022-09-17T16:41:06.087Z,67.73
2022-09-17T16:42:14.391Z,67.39
2022-09-17T16:43:23.511Z,67.12
2022-09-17T16:44:31.956Z,66.82
2022-09-17T16:45:43.854Z,66.31
2022-09-17T16:46:50.490Z,66.13
2022-09-17T16:48:01.097Z,66.45
2022-09-17T16:49:20.059Z,66.41
2022-09-17T16:50:26.255Z,66.17
2022-09-17T16:51:33.694Z,66.37
2022-09-17T16:52:39.881Z,66.62
2022-09-17T16:53:46.775Z,66.74
2022-09-17T16:54:52.980Z,66.38
2022-09-17T16:55:59.086Z,65.41
2022-09-17T16:57:06.814Z,65.07
2022-09-17T16:58:13.902Z,64.87
2022-09-17T16:59:21.046Z,64.78
2022-09-17T17:00:28.185Z,64.66
2022-09-17T17:01:34.232Z,64.59
2022-09-17T17:03:03.937Z,64.27
2022-09-17T17:04:10.982Z,63.81
2022-09-17T17:05:18.548Z,63.62